Overview Statistics Trail Chart Weather Telemetry Raw packets
 

This is the latest recevied weather packets stored in our database for station/object TB1YZC-13. If no packets are shown the sender has not sent any weather packets the latest 10 day(s).

<< 22 23 24 25 26 27 28 >>
Time Temp. Humidity Pressure Rain* Wind** Luminosity Snow
1788320461 18.89° C 97% 1020 hPa - - - -
1788319857 18.89° C 96% 1019.9 hPa - - - -
1788319254 18.89° C 95% 1019.9 hPa - - - -
1788318651 19.44° C 95% 1019.8 hPa - - - -
1788318048 18.89° C 95% 1019.8 hPa - - - -
1788317445 18.33° C 94% 1020 hPa - - - -
1788316842 19.44° C 91% 1019.8 hPa - - - -
1788316238 18.89° C 91% 1019.9 hPa - - - -
1788315635 19.44° C 91% 1019.8 hPa - - - -
1788315032 20° C 90% 1019.8 hPa - - - -
1788314429 20° C 90% 1019.8 hPa - - - -
1788313826 19.44° C 90% 1019.8 hPa - - - -
1788313222 19.44° C 89% 1019.8 hPa - - - -
1788312619 19.44° C 88% 1019.6 hPa - - - -
1788312016 19.44° C 89% 1019.6 hPa - - - -
1788311413 20° C 89% 1019.5 hPa - - - -
1788310811 20° C 88% 1019.6 hPa - - - -
1788310207 19.44° C 89% 1019.5 hPa - - - -
1788309604 20° C 86% 1019.4 hPa - - - -
1788309001 20.56° C 88% 1019.3 hPa - - - -
1788308397 20.56° C 88% 1019.4 hPa - - - -
1788307794 20.56° C 87% 1019.3 hPa - - - -
1788307191 20.56° C 86% 1019.4 hPa - - - -
1788306588 20.56° C 86% 1019.3 hPa - - - -
1788305985 20.56° C 86% 1019.3 hPa - - - -

* Rain since midnight (hover to see other rain measurements)
** Current wind speed in m/s (hover to see current wind gust speed)